createdAt,value
2018-06-12T00:01:26.618Z,10.83
2018-06-12T00:03:55.220Z,11.10
2018-06-12T00:06:24.109Z,10.53
2018-06-12T00:08:52.757Z,11.77
2018-06-12T00:11:21.748Z,10.87
2018-06-12T00:13:50.513Z,10.63
2018-06-12T00:16:19.275Z,11.47
2018-06-12T00:18:47.604Z,11.50
2018-06-12T00:21:16.363Z,10.70
2018-06-12T00:23:45.076Z,10.47
2018-06-12T00:26:13.819Z,11.37
2018-06-12T00:28:49.293Z,10.60
2018-06-12T00:31:17.969Z,11.17
2018-06-12T00:33:46.594Z,10.73
2018-06-12T00:36:15.040Z,11.13
2018-06-12T00:38:43.682Z,10.37
2018-06-12T00:41:12.223Z,10.03
2018-06-12T00:43:41.012Z,10.87
2018-06-12T00:46:09.697Z,10.80
2018-06-12T00:48:38.633Z,9.93
2018-06-12T00:51:07.800Z,9.93
2018-06-12T00:53:36.463Z,10.50
2018-06-12T00:56:07.088Z,10.93
2018-06-12T00:58:35.806Z,10.73
2018-06-12T01:01:04.464Z,10.10
2018-06-12T01:03:33.136Z,10.27
2018-06-12T01:06:01.933Z,10.87
2018-06-12T01:08:30.924Z,9.47
2018-06-12T01:10:59.877Z,10.13
2018-06-12T01:13:28.881Z,9.97
2018-06-12T01:15:57.603Z,9.27
2018-06-12T01:18:26.885Z,9.70
2018-06-12T01:20:55.219Z,9.90
2018-06-12T01:23:24.081Z,10.40
2018-06-12T01:25:52.788Z,10.00
2018-06-12T01:28:21.616Z,9.20
2018-06-12T01:30:50.326Z,9.83
2018-06-12T01:33:18.814Z,9.70
2018-06-12T01:35:47.502Z,9.57
2018-06-12T01:38:16.195Z,8.80
2018-06-12T01:40:44.904Z,8.73
2018-06-12T01:43:13.630Z,8.93
2018-06-12T01:45:42.421Z,9.47
2018-06-12T01:48:11.208Z,8.27
2018-06-12T01:50:39.917Z,8.47
2018-06-12T01:53:08.772Z,8.33
2018-06-12T01:55:37.735Z,8.83
2018-06-12T01:58:06.660Z,8.50
2018-06-12T02:00:35.456Z,8.17
2018-06-12T02:03:04.188Z,7.60
2018-06-12T02:05:32.930Z,8.23
2018-06-12T02:08:01.662Z,7.87
2018-06-12T02:10:30.381Z,6.57
2018-06-12T02:12:59.540Z,7.50
2018-06-12T02:15:27.903Z,7.80
2018-06-12T02:17:56.638Z,6.67
2018-06-12T02:20:25.475Z,6.60
2018-06-12T02:22:55.892Z,6.27
2018-06-12T02:25:24.692Z,6.97
2018-06-12T02:27:53.486Z,6.37
2018-06-12T02:30:22.177Z,7.60
2018-06-12T02:32:50.541Z,8.17
2018-06-12T02:35:19.277Z,8.60
2018-06-12T02:37:47.962Z,8.60
2018-06-12T02:40:16.684Z,8.77
2018-06-12T02:42:45.372Z,8.43
2018-06-12T02:45:14.670Z,9.20
2018-06-12T02:47:43.446Z,9.00
2018-06-12T02:50:12.175Z,8.50
2018-06-12T02:52:40.901Z,9.27
2018-06-12T02:55:09.775Z,9.47
2018-06-12T02:57:38.509Z,8.97
2018-06-12T03:00:07.256Z,9.13
2018-06-12T03:02:36.053Z,8.10
2018-06-12T03:05:04.847Z,9.03
2018-06-12T03:07:33.622Z,8.30
2018-06-12T03:10:02.426Z,7.87
2018-06-12T03:12:31.146Z,9.13
2018-06-12T03:14:59.838Z,8.20
2018-06-12T03:17:28.703Z,9.00
2018-06-12T03:19:57.409Z,7.57
2018-06-12T03:22:26.186Z,8.27
2018-06-12T03:24:54.904Z,7.57
2018-06-12T03:27:23.744Z,9.50
2018-06-12T03:29:52.449Z,8.77
2018-06-12T03:32:21.963Z,8.00
2018-06-12T03:34:50.613Z,8.47
2018-06-12T03:37:19.343Z,8.60
2018-06-12T03:39:48.081Z,7.57
2018-06-12T03:42:16.836Z,6.80
2018-06-12T03:44:45.589Z,7.17
2018-06-12T03:47:14.290Z,7.03
2018-06-12T03:49:43.061Z,6.90
2018-06-12T03:52:11.798Z,7.83
2018-06-12T03:54:40.501Z,7.70
2018-06-12T03:57:09.274Z,7.20
2018-06-12T03:59:38.016Z,7.10
2018-06-12T04:02:06.769Z,7.13
2018-06-12T04:04:35.458Z,7.07
2018-06-12T04:07:03.864Z,6.67
2018-06-12T04:09:32.570Z,7.10
2018-06-12T04:12:01.325Z,7.60
2018-06-12T04:14:30.038Z,6.63
2018-06-12T04:16:58.359Z,6.50
2018-06-12T04:19:27.090Z,5.90
2018-06-12T04:21:55.820Z,6.00
2018-06-12T04:24:24.543Z,5.73
2018-06-12T04:26:53.210Z,4.80
2018-06-12T04:29:21.905Z,5.00
2018-06-12T04:31:50.623Z,5.07
2018-06-12T04:34:19.357Z,4.73
2018-06-12T04:36:48.156Z,5.40
2018-06-12T04:39:16.903Z,5.10
2018-06-12T04:41:45.615Z,4.20
2018-06-12T04:44:14.400Z,4.93
2018-06-12T04:46:43.108Z,4.63
2018-06-12T04:49:11.835Z,4.80
2018-06-12T04:51:40.158Z,4.27
2018-06-12T04:54:08.873Z,5.77
2018-06-12T04:56:37.555Z,4.30
2018-06-12T04:59:06.279Z,4.13
2018-06-12T05:01:34.946Z,4.60
2018-06-12T05:04:03.654Z,4.47
2018-06-12T05:06:32.390Z,4.17
2018-06-12T05:09:02.481Z,4.50
2018-06-12T05:11:31.215Z,5.27
2018-06-12T05:13:59.887Z,4.13
2018-06-12T05:16:28.593Z,5.43
2018-06-12T05:18:57.270Z,5.23
2018-06-12T05:21:26.015Z,5.13
2018-06-12T05:23:54.752Z,5.03
2018-06-12T05:26:23.416Z,5.30
2018-06-12T05:28:56.242Z,4.60
2018-06-12T05:31:25.066Z,5.03
2018-06-12T05:33:53.789Z,4.13
2018-06-12T05:36:22.508Z,4.00
2018-06-12T05:38:51.192Z,4.13
2018-06-12T05:41:19.885Z,4.43
2018-06-12T05:43:48.746Z,3.97
2018-06-12T05:46:17.419Z,4.50
2018-06-12T05:48:46.102Z,4.13
2018-06-12T05:51:14.767Z,4.33
2018-06-12T05:53:43.449Z,4.20
2018-06-12T05:56:12.163Z,4.00
2018-06-12T05:58:40.880Z,4.37
2018-06-12T06:01:09.914Z,4.13
2018-06-12T06:03:38.610Z,4.20
2018-06-12T06:06:07.325Z,4.00
2018-06-12T06:08:36.062Z,5.03
2018-06-12T06:11:04.788Z,4.40
2018-06-12T06:13:33.510Z,4.10
2018-06-12T06:16:02.219Z,3.80
2018-06-12T06:18:30.963Z,4.70
2018-06-12T06:20:59.323Z,4.40
2018-06-12T06:23:28.013Z,5.63
2018-06-12T06:25:56.724Z,4.77
2018-06-12T06:28:25.395Z,4.60
2018-06-12T06:30:54.191Z,5.20
2018-06-12T06:33:23.579Z,5.10
2018-06-12T06:35:52.270Z,4.90
2018-06-12T06:38:20.962Z,4.80
2018-06-12T06:40:49.632Z,5.03
2018-06-12T06:43:18.338Z,4.97
2018-06-12T06:45:47.110Z,4.30
2018-06-12T06:48:15.854Z,4.90
2018-06-12T06:50:44.161Z,4.97
2018-06-12T06:53:12.858Z,4.93
2018-06-12T06:55:41.587Z,5.03
2018-06-12T06:58:10.325Z,4.43
2018-06-12T07:00:39.113Z,5.33
2018-06-12T07:03:07.806Z,4.60
2018-06-12T07:05:36.538Z,4.97
2018-06-12T07:08:05.408Z,5.70
2018-06-12T07:10:34.194Z,5.43
2018-06-12T07:13:02.972Z,6.13
2018-06-12T07:15:31.612Z,4.97
2018-06-12T07:18:00.317Z,5.43
2018-06-12T07:20:40.146Z,5.37
2018-06-12T07:23:08.870Z,5.60
2018-06-12T07:25:37.595Z,5.20
2018-06-12T07:28:06.477Z,5.07
2018-06-12T07:30:35.232Z,5.00
2018-06-12T07:33:03.967Z,4.37
2018-06-12T07:35:32.685Z,4.57
2018-06-12T07:38:00.979Z,3.93
2018-06-12T07:40:29.672Z,4.73
2018-06-12T07:42:58.394Z,3.80
2018-06-12T07:45:27.128Z,3.93
2018-06-12T07:47:55.783Z,3.70
2018-06-12T07:50:24.540Z,3.87
2018-06-12T07:52:53.393Z,3.47
2018-06-12T07:55:22.203Z,3.97
2018-06-12T07:57:50.911Z,3.80
2018-06-12T08:00:19.585Z,3.73
2018-06-12T08:02:47.936Z,3.97
2018-06-12T08:05:16.801Z,4.57
2018-06-12T08:07:45.539Z,4.03
2018-06-12T08:10:14.237Z,4.10
2018-06-12T08:12:42.985Z,4.10
2018-06-12T08:15:11.755Z,3.97
2018-06-12T08:17:40.791Z,3.83
2018-06-12T08:20:09.564Z,3.97
2018-06-12T08:22:38.327Z,3.90
2018-06-12T08:25:07.081Z,3.80
2018-06-12T08:27:35.886Z,3.80
2018-06-12T08:30:05.160Z,4.30
2018-06-12T08:32:33.917Z,4.50
2018-06-12T08:35:02.786Z,3.53
2018-06-12T08:37:31.583Z,3.90
2018-06-12T08:40:00.319Z,4.40
2018-06-12T08:42:29.006Z,4.47
2018-06-12T08:44:57.741Z,3.90
2018-06-12T08:47:26.488Z,4.47
2018-06-12T08:49:57.980Z,4.30
2018-06-12T08:52:28.532Z,4.80
2018-06-12T08:55:00.067Z,3.87
2018-06-12T08:57:29.862Z,4.57
2018-06-12T08:59:58.615Z,4.63
2018-06-12T09:02:27.324Z,4.63
2018-06-12T09:04:56.123Z,4.60
2018-06-12T09:07:25.819Z,4.60
2018-06-12T09:09:54.593Z,4.87
2018-06-12T09:12:23.393Z,4.43
2018-06-12T09:14:51.732Z,4.47
2018-06-12T09:17:20.650Z,4.83
2018-06-12T09:19:49.576Z,4.30
2018-06-12T09:22:18.923Z,4.67
2018-06-12T09:24:48.183Z,5.00
2018-06-12T09:27:17.252Z,5.37
2018-06-12T09:29:46.109Z,5.03
2018-06-12T09:32:15.151Z,5.13
2018-06-12T09:34:44.551Z,4.60
2018-06-12T09:37:13.334Z,5.20
2018-06-12T09:39:42.082Z,4.50
2018-06-12T09:42:10.953Z,4.70
2018-06-12T09:44:39.697Z,4.50
2018-06-12T09:47:08.460Z,3.97
2018-06-12T09:49:37.276Z,4.53
2018-06-12T09:52:06.170Z,4.70
2018-06-12T09:54:34.901Z,4.00
2018-06-12T09:57:03.616Z,4.57
2018-06-12T09:59:32.324Z,4.30
2018-06-12T10:02:00.665Z,4.40
2018-06-12T10:04:29.647Z,4.20
2018-06-12T10:06:58.410Z,4.40
2018-06-12T10:09:27.179Z,4.13
2018-06-12T10:11:55.891Z,4.10
2018-06-12T10:14:24.788Z,3.87
2018-06-12T10:16:53.525Z,3.87
2018-06-12T10:19:22.473Z,4.27
2018-06-12T10:21:50.847Z,3.73
2018-06-12T10:24:19.662Z,4.33
2018-06-12T10:26:48.370Z,4.00
2018-06-12T10:29:17.114Z,4.23
2018-06-12T10:31:45.842Z,4.00
2018-06-12T10:34:14.559Z,3.97
2018-06-12T10:36:43.309Z,4.10
2018-06-12T10:39:12.955Z,4.20
2018-06-12T10:41:41.706Z,3.90
2018-06-12T10:44:10.469Z,4.07
2018-06-12T10:46:39.203Z,3.70
2018-06-12T10:49:07.912Z,4.40
2018-06-12T10:51:36.665Z,4.07
2018-06-12T10:54:05.415Z,4.27
2018-06-12T10:56:34.244Z,4.53
2018-06-12T10:59:02.961Z,4.10
2018-06-12T11:01:31.666Z,3.70
2018-06-12T11:04:00.439Z,3.70
2018-06-12T11:06:28.817Z,3.70
2018-06-12T11:08:57.583Z,4.10
2018-06-12T11:11:26.321Z,4.33
2018-06-12T11:13:55.039Z,3.90
2018-06-12T11:16:23.754Z,4.17
2018-06-12T11:18:54.585Z,3.80
2018-06-12T11:21:23.358Z,3.90
2018-06-12T11:23:52.083Z,3.90
2018-06-12T11:26:20.789Z,4.50
2018-06-12T11:28:49.522Z,4.53
2018-06-12T11:31:18.250Z,4.47
2018-06-12T11:33:46.946Z,4.67
2018-06-12T11:36:15.683Z,4.60
2018-06-12T11:38:44.689Z,4.27
2018-06-12T11:41:13.438Z,3.97
2018-06-12T11:43:43.382Z,3.93
2018-06-12T11:46:12.074Z,4.20
2018-06-12T11:48:40.777Z,4.70
2018-06-12T11:51:09.501Z,4.30
2018-06-12T11:53:38.200Z,4.10
2018-06-12T11:56:06.959Z,4.77
2018-06-12T11:58:35.301Z,4.37
2018-06-12T12:01:04.054Z,4.97
2018-06-12T12:03:32.762Z,4.00
2018-06-12T12:06:01.515Z,4.30
2018-06-12T12:08:30.398Z,4.90
2018-06-12T12:10:59.094Z,4.50
2018-06-12T12:13:27.769Z,4.20
2018-06-12T12:15:56.544Z,4.40
2018-06-12T12:18:25.313Z,4.97
2018-06-12T12:20:54.041Z,4.17
2018-06-12T12:23:22.817Z,4.47
2018-06-12T12:25:51.638Z,4.80
2018-06-12T12:28:20.412Z,4.37
2018-06-12T12:30:49.114Z,5.33
2018-06-12T12:33:18.473Z,4.30
2018-06-12T12:35:47.210Z,4.90
2018-06-12T12:38:15.947Z,5.10
2018-06-12T12:40:44.691Z,4.83
2018-06-12T12:43:13.450Z,5.30
2018-06-12T12:45:42.164Z,4.67
2018-06-12T12:48:10.855Z,5.50
2018-06-12T12:50:39.550Z,5.10
2018-06-12T12:53:08.411Z,5.23
2018-06-12T12:55:37.148Z,4.87
2018-06-12T12:58:05.937Z,4.83
2018-06-12T13:00:34.609Z,5.20
2018-06-12T13:03:03.457Z,5.07
2018-06-12T13:05:33.030Z,5.37
2018-06-12T13:08:01.777Z,4.87
2018-06-12T13:10:30.607Z,5.17
2018-06-12T13:12:59.461Z,4.70
2018-06-12T13:15:28.281Z,4.80
2018-06-12T13:17:57.109Z,5.23
2018-06-12T13:20:25.954Z,4.70
2018-06-12T13:22:54.619Z,4.37
2018-06-12T13:25:23.405Z,4.20
2018-06-12T13:27:52.190Z,4.03
2018-06-12T13:30:20.543Z,4.00
2018-06-12T13:32:49.384Z,4.47
2018-06-12T13:35:18.129Z,3.90
2018-06-12T13:37:46.878Z,3.67
2018-06-12T13:40:15.390Z,3.90
2018-06-12T13:42:44.122Z,3.70
2018-06-12T13:45:12.991Z,3.80
2018-06-12T13:47:41.663Z,3.40
2018-06-12T13:50:13.588Z,3.47
2018-06-12T13:52:42.573Z,3.77
2018-06-12T13:55:11.856Z,3.90
2018-06-12T13:57:40.677Z,4.13
2018-06-12T14:00:09.579Z,4.13
2018-06-12T14:02:38.540Z,4.00
2018-06-12T14:05:07.357Z,3.80
2018-06-12T14:07:36.258Z,3.73
2018-06-12T14:10:04.968Z,3.40
2018-06-12T14:12:33.717Z,3.93
2018-06-12T14:15:02.474Z,3.50
2018-06-12T14:17:31.164Z,3.80
2018-06-12T14:19:59.907Z,3.80
2018-06-12T14:22:28.240Z,4.07
2018-06-12T14:24:57.131Z,3.93
2018-06-12T14:27:25.946Z,4.00
2018-06-12T14:29:54.811Z,4.00
2018-06-12T14:32:23.522Z,4.20
2018-06-12T14:34:52.214Z,4.13
2018-06-12T14:37:20.805Z,4.03
2018-06-12T14:39:49.555Z,4.00
2018-06-12T14:42:18.308Z,4.13
2018-06-12T14:44:47.440Z,4.20
2018-06-12T14:47:16.293Z,4.23
2018-06-12T14:49:45.434Z,4.33
2018-06-12T14:52:14.257Z,4.30
2018-06-12T14:54:43.094Z,4.10
2018-06-12T14:57:11.484Z,4.47
2018-06-12T14:59:40.370Z,4.87
2018-06-12T15:02:09.160Z,4.77
2018-06-12T15:04:37.981Z,4.60
2018-06-12T15:07:06.743Z,4.50
2018-06-12T15:09:36.724Z,4.63
2018-06-12T15:12:05.487Z,5.03
2018-06-12T15:14:34.179Z,4.47
2018-06-12T15:17:09.095Z,5.23
2018-06-12T15:19:37.853Z,4.80
2018-06-12T15:22:07.657Z,4.97
2018-06-12T15:24:36.350Z,4.53
2018-06-12T15:27:05.170Z,4.63
2018-06-12T15:29:34.445Z,4.07
2018-06-12T15:32:03.312Z,5.30
2018-06-12T15:34:31.997Z,4.40
2018-06-12T15:37:00.776Z,4.80
2018-06-12T15:39:29.425Z,4.57
2018-06-12T15:41:58.179Z,4.27
2018-06-12T15:44:26.879Z,4.13
2018-06-12T15:46:55.626Z,5.00
2018-06-12T15:49:24.386Z,5.23
2018-06-12T15:51:54.344Z,4.80
2018-06-12T15:54:23.829Z,5.47
2018-06-12T15:56:52.505Z,5.10
2018-06-12T15:59:21.878Z,4.53
2018-06-12T16:01:50.246Z,5.00
2018-06-12T16:04:18.979Z,4.97
2018-06-12T16:06:47.888Z,4.63
2018-06-12T16:09:16.654Z,4.73
2018-06-12T16:11:45.318Z,4.90
2018-06-12T16:14:14.019Z,4.40
2018-06-12T16:16:42.903Z,4.20
2018-06-12T16:19:11.666Z,4.83
2018-06-12T16:21:40.627Z,5.20
2018-06-12T16:24:09.338Z,4.43
2018-06-12T16:26:38.046Z,5.33
2018-06-12T16:29:06.824Z,4.10
2018-06-12T16:31:35.569Z,4.40
2018-06-12T16:34:04.921Z,4.97
2018-06-12T16:36:33.907Z,4.77
2018-06-12T16:39:02.708Z,4.17
2018-06-12T16:41:31.629Z,4.83
2018-06-12T16:44:00.485Z,4.20
2018-06-12T16:46:29.229Z,4.87
2018-06-12T16:48:58.222Z,4.27
2018-06-12T16:51:26.997Z,4.00
2018-06-12T16:53:55.697Z,4.10
2018-06-12T16:56:24.399Z,4.10
2018-06-12T16:58:53.139Z,4.30
2018-06-12T17:01:21.905Z,4.37
2018-06-12T17:03:50.667Z,3.73
2018-06-12T17:06:19.412Z,4.33
2018-06-12T17:08:48.199Z,4.47
2018-06-12T17:11:16.981Z,4.20
2018-06-12T17:13:45.828Z,4.50
2018-06-12T17:16:15.396Z,4.40
2018-06-12T17:18:44.295Z,4.50
2018-06-12T17:21:13.106Z,4.47
2018-06-12T17:23:42.012Z,4.43
2018-06-12T17:26:10.709Z,5.10
2018-06-12T17:28:39.468Z,4.40
2018-06-12T17:31:08.370Z,4.20
2018-06-12T17:33:37.018Z,5.07
2018-06-12T17:36:05.832Z,4.77
2018-06-12T17:38:34.542Z,4.27
2018-06-12T17:41:03.489Z,5.33
2018-06-12T17:43:32.353Z,4.60
2018-06-12T17:46:01.046Z,4.83
2018-06-12T17:48:29.866Z,5.10
2018-06-12T17:50:58.652Z,5.20
2018-06-12T17:53:27.429Z,4.73
2018-06-12T17:55:56.260Z,5.60
2018-06-12T17:58:24.961Z,4.83
2018-06-12T18:00:53.736Z,5.20
2018-06-12T18:03:22.477Z,4.80
2018-06-12T18:05:51.210Z,8.10
2018-06-12T18:08:19.982Z,4.23
2018-06-12T18:10:49.032Z,6.13
2018-06-12T18:13:17.719Z,4.37
2018-06-12T18:15:46.431Z,4.73
2018-06-12T18:18:20.634Z,5.73
2018-06-12T18:20:49.361Z,4.60
2018-06-12T18:23:18.039Z,3.97
2018-06-12T18:25:49.362Z,3.80
2018-06-12T18:28:18.224Z,3.93
2018-06-12T18:30:46.993Z,3.40
2018-06-12T18:33:15.769Z,3.57
2018-06-12T18:35:44.395Z,3.87
2018-06-12T18:38:13.370Z,3.90
2018-06-12T18:40:42.093Z,3.67
2018-06-12T18:43:10.524Z,3.53
2018-06-12T18:45:39.463Z,3.03
2018-06-12T18:48:08.015Z,3.50
2018-06-12T18:50:37.055Z,3.30
2018-06-12T18:53:06.180Z,3.37
2018-06-12T18:55:34.970Z,3.43
2018-06-12T18:58:03.766Z,3.17
2018-06-12T19:00:33.174Z,3.33
2018-06-12T19:03:02.040Z,3.00
2018-06-12T19:05:30.844Z,2.97
2018-06-12T19:07:59.721Z,2.97
2018-06-12T19:10:28.467Z,3.20
2018-06-12T19:12:57.393Z,3.50
2018-06-12T19:15:26.220Z,3.00
2018-06-12T19:17:55.050Z,3.80
2018-06-12T19:20:23.866Z,3.50
2018-06-12T19:22:52.533Z,3.10
2018-06-12T19:25:21.176Z,3.10
2018-06-12T19:27:49.966Z,3.10
2018-06-12T19:30:18.708Z,3.27
2018-06-12T19:32:47.561Z,3.00
2018-06-12T19:35:16.362Z,3.10
2018-06-12T19:37:45.083Z,3.30
2018-06-12T19:40:13.900Z,3.17
2018-06-12T19:42:42.698Z,3.20
2018-06-12T19:45:11.937Z,3.53
2018-06-12T19:47:40.642Z,3.60
2018-06-12T19:50:09.469Z,3.30
2018-06-12T19:52:38.145Z,3.50
2018-06-12T19:55:06.991Z,3.57
2018-06-12T19:57:35.812Z,3.47
2018-06-12T20:00:04.830Z,3.20
2018-06-12T20:02:33.308Z,3.50
2018-06-12T20:05:02.079Z,3.40
2018-06-12T20:07:30.865Z,3.77
2018-06-12T20:09:59.621Z,3.67
2018-06-12T20:12:28.562Z,4.13
2018-06-12T20:14:57.309Z,3.40
2018-06-12T20:17:26.128Z,3.97
2018-06-12T20:19:54.911Z,3.63
2018-06-12T20:22:23.677Z,3.67
2018-06-12T20:24:52.451Z,3.57
2018-06-12T20:27:21.232Z,3.73
2018-06-12T20:29:50.029Z,3.80
2018-06-12T20:32:18.806Z,4.40
2018-06-12T20:34:47.805Z,4.20
2018-06-12T20:37:16.643Z,4.00
2018-06-12T20:39:45.386Z,4.40
2018-06-12T20:42:14.208Z,3.93
2018-06-12T20:44:42.959Z,3.60
2018-06-12T20:47:11.680Z,4.50
2018-06-12T20:49:40.324Z,4.23
2018-06-12T20:52:09.053Z,3.93
2018-06-12T20:54:37.781Z,4.10
2018-06-12T20:57:06.505Z,4.07
2018-06-12T20:59:35.224Z,4.30
2018-06-12T21:02:04.032Z,4.50
2018-06-12T21:04:32.845Z,4.40
2018-06-12T21:07:01.661Z,4.00
2018-06-12T21:09:30.353Z,4.03
2018-06-12T21:11:59.034Z,4.40
2018-06-12T21:14:27.747Z,4.40
2018-06-12T21:16:56.529Z,4.30
2018-06-12T21:19:25.234Z,4.40
2018-06-12T21:21:53.933Z,4.40
2018-06-12T21:24:22.657Z,4.60
2018-06-12T21:26:51.525Z,3.97
2018-06-12T21:29:20.285Z,4.10
2018-06-12T21:31:49.109Z,4.30
2018-06-12T21:34:17.828Z,4.20
2018-06-12T21:36:46.627Z,4.17
2018-06-12T21:39:15.857Z,4.60
2018-06-12T21:41:44.631Z,4.30
2018-06-12T21:44:13.409Z,3.87
2018-06-12T21:46:42.127Z,4.40
2018-06-12T21:49:10.789Z,4.43
2018-06-12T21:51:39.586Z,4.23
2018-06-12T21:54:08.015Z,4.17
2018-06-12T21:56:36.770Z,4.30
2018-06-12T21:59:05.856Z,3.93
2018-06-12T22:01:34.611Z,3.90
2018-06-12T22:04:03.380Z,3.43
2018-06-12T22:06:32.409Z,3.67
2018-06-12T22:09:01.946Z,3.50
2018-06-12T22:11:30.917Z,3.53
2018-06-12T22:13:59.796Z,3.60
2018-06-12T22:16:28.672Z,3.57
2018-06-12T22:18:57.486Z,3.70
2018-06-12T22:21:26.215Z,3.50
2018-06-12T22:23:55.020Z,3.40
2018-06-12T22:26:23.757Z,3.43
2018-06-12T22:28:54.843Z,3.50
2018-06-12T22:31:23.577Z,3.30
2018-06-12T22:33:52.530Z,3.30
2018-06-12T22:36:21.433Z,3.70
2018-06-12T22:38:50.227Z,2.90
2018-06-12T22:41:19.059Z,2.80
2018-06-12T22:43:47.828Z,2.87
2018-06-12T22:46:18.208Z,2.80
2018-06-12T22:48:47.731Z,2.93
2018-06-12T22:51:16.589Z,2.63
2018-06-12T22:53:45.313Z,2.50
2018-06-12T22:56:14.156Z,3.00
2018-06-12T22:58:42.601Z,2.40
2018-06-12T23:01:11.498Z,2.47
2018-06-12T23:03:41.169Z,3.53
2018-06-12T23:06:10.295Z,2.97
2018-06-12T23:08:39.033Z,2.77
2018-06-12T23:11:07.796Z,3.00
2018-06-12T23:13:36.575Z,2.87
2018-06-12T23:16:09.361Z,3.00
2018-06-12T23:18:38.118Z,3.20
2018-06-12T23:21:20.650Z,2.80
2018-06-12T23:23:49.374Z,2.90
2018-06-12T23:26:18.927Z,2.67
2018-06-12T23:28:47.669Z,3.00
2018-06-12T23:31:16.465Z,2.73
2018-06-12T23:33:45.598Z,3.23
2018-06-12T23:36:14.302Z,2.70
2018-06-12T23:38:43.417Z,2.87
2018-06-12T23:41:12.234Z,3.80
2018-06-12T23:43:40.643Z,3.03
2018-06-12T23:46:09.375Z,2.80
2018-06-12T23:48:38.292Z,3.03
2018-06-12T23:51:07.062Z,3.07
2018-06-12T23:53:35.873Z,2.60
2018-06-12T23:56:04.688Z,2.77
2018-06-12T23:58:33.560Z,2.80
